sensor_id;sensor_type;location;lat;lon;timestamp;temperature;humidity
32476;DHT22;18929;48.008;10.882;2023-06-22T00:02:00;25.70;98.70
32476;DHT22;18929;48.008;10.882;2023-06-22T00:04:27;23.90;99.90
32476;DHT22;18929;48.008;10.882;2023-06-22T00:06:53;24.60;99.90
32476;DHT22;18929;48.008;10.882;2023-06-22T00:09:20;25.00;99.60
32476;DHT22;18929;48.008;10.882;2023-06-22T00:11:47;25.50;99.00
32476;DHT22;18929;48.008;10.882;2023-06-22T00:14:14;25.80;98.50
32476;DHT22;18929;48.008;10.882;2023-06-22T00:16:42;25.90;98.30
32476;DHT22;18929;48.008;10.882;2023-06-22T00:19:09;25.90;98.30
32476;DHT22;18929;48.008;10.882;2023-06-22T00:21:37;25.90;98.20
32476;DHT22;18929;48.008;10.882;2023-06-22T00:24:04;25.90;98.10
32476;DHT22;18929;48.008;10.882;2023-06-22T00:26:31;25.90;98.20
32476;DHT22;18929;48.008;10.882;2023-06-22T00:28:58;25.60;98.40
32476;DHT22;18929;48.008;10.882;2023-06-22T00:31:25;25.30;98.80
32476;DHT22;18929;48.008;10.882;2023-06-22T00:33:53;25.20;99.10
32476;DHT22;18929;48.008;10.882;2023-06-22T00:36:19;25.50;98.70
32476;DHT22;18929;48.008;10.882;2023-06-22T00:38:46;25.60;98.60
32476;DHT22;18929;48.008;10.882;2023-06-22T00:41:16;25.60;98.50
32476;DHT22;18929;48.008;10.882;2023-06-22T00:43:43;25.50;98.90
32476;DHT22;18929;48.008;10.882;2023-06-22T00:46:09;25.50;98.60
32476;DHT22;18929;48.008;10.882;2023-06-22T00:48:36;25.00;98.60
32476;DHT22;18929;48.008;10.882;2023-06-22T00:51:04;24.80;99.50
32476;DHT22;18929;48.008;10.882;2023-06-22T00:53:31;25.20;99.00
32476;DHT22;18929;48.008;10.882;2023-06-22T00:56:00;25.30;98.90
32476;DHT22;18929;48.008;10.882;2023-06-22T00:58:29;25.30;98.80
32476;DHT22;18929;48.008;10.882;2023-06-22T01:00:56;25.10;99.00
32476;DHT22;18929;48.008;10.882;2023-06-22T01:03:23;25.20;98.80
32476;DHT22;18929;48.008;10.882;2023-06-22T01:05:49;24.80;99.40
32476;DHT22;18929;48.008;10.882;2023-06-22T01:08:20;24.80;99.50
32476;DHT22;18929;48.008;10.882;2023-06-22T01:10:50;25.00;99.10
32476;DHT22;18929;48.008;10.882;2023-06-22T01:13:20;25.10;98.70
32476;DHT22;18929;48.008;10.882;2023-06-22T01:15:49;25.30;98.70
32476;DHT22;18929;48.008;10.882;2023-06-22T01:18:18;25.20;98.60
32476;DHT22;18929;48.008;10.882;2023-06-22T01:20:46;25.20;99.10
32476;DHT22;18929;48.008;10.882;2023-06-22T01:23:16;25.10;98.80
32476;DHT22;18929;48.008;10.882;2023-06-22T01:25:47;25.10;98.60
32476;DHT22;18929;48.008;10.882;2023-06-22T01:28:20;24.50;99.50
32476;DHT22;18929;48.008;10.882;2023-06-22T01:30:50;24.90;99.10
32476;DHT22;18929;48.008;10.882;2023-06-22T01:33:26;24.90;99.00
32476;DHT22;18929;48.008;10.882;2023-06-22T01:35:53;24.00;99.90
32476;DHT22;18929;48.008;10.882;2023-06-22T01:38:20;24.50;99.70
32476;DHT22;18929;48.008;10.882;2023-06-22T01:40:48;24.60;99.40
32476;DHT22;18929;48.008;10.882;2023-06-22T01:43:15;24.70;99.30
32476;DHT22;18929;48.008;10.882;2023-06-22T01:45:42;24.70;99.20
32476;DHT22;18929;48.008;10.882;2023-06-22T01:48:10;24.80;99.20
32476;DHT22;18929;48.008;10.882;2023-06-22T01:50:37;24.60;99.10
32476;DHT22;18929;48.008;10.882;2023-06-22T01:53:04;24.70;99.10
32476;DHT22;18929;48.008;10.882;2023-06-22T01:55:32;24.70;99.20
32476;DHT22;18929;48.008;10.882;2023-06-22T01:57:59;24.60;99.30
32476;DHT22;18929;48.008;10.882;2023-06-22T02:00:25;24.50;99.30
32476;DHT22;18929;48.008;10.882;2023-06-22T02:02:59;24.50;99.20
32476;DHT22;18929;48.008;10.882;2023-06-22T02:05:31;24.50;99.30
32476;DHT22;18929;48.008;10.882;2023-06-22T02:08:01;24.50;99.20
32476;DHT22;18929;48.008;10.882;2023-06-22T02:10:28;24.50;99.00
32476;DHT22;18929;48.008;10.882;2023-06-22T02:12:56;24.50;99.10
32476;DHT22;18929;48.008;10.882;2023-06-22T02:15:24;24.30;99.20
32476;DHT22;18929;48.008;10.882;2023-06-22T02:17:51;24.30;99.30
32476;DHT22;18929;48.008;10.882;2023-06-22T02:20:18;24.30;99.30
32476;DHT22;18929;48.008;10.882;2023-06-22T02:22:47;24.30;99.30
32476;DHT22;18929;48.008;10.882;2023-06-22T02:25:13;24.30;99.30
32476;DHT22;18929;48.008;10.882;2023-06-22T02:27:41;24.10;99.30
32476;DHT22;18929;48.008;10.882;2023-06-22T02:30:08;24.10;99.20
32476;DHT22;18929;48.008;10.882;2023-06-22T02:32:35;24.20;99.20
32476;DHT22;18929;48.008;10.882;2023-06-22T02:35:02;24.10;99.20
32476;DHT22;18929;48.008;10.882;2023-06-22T02:37:30;24.10;99.30
32476;DHT22;18929;48.008;10.882;2023-06-22T02:39:58;24.00;99.10
32476;DHT22;18929;48.008;10.882;2023-06-22T02:42:25;23.80;99.50
32476;DHT22;18929;48.008;10.882;2023-06-22T02:44:51;24.00;99.30
32476;DHT22;18929;48.008;10.882;2023-06-22T02:47:18;23.60;99.80
32476;DHT22;18929;48.008;10.882;2023-06-22T02:49:45;23.90;99.50
32476;DHT22;18929;48.008;10.882;2023-06-22T02:52:12;23.40;99.90
32476;DHT22;18929;48.008;10.882;2023-06-22T02:54:39;23.60;99.90
32476;DHT22;18929;48.008;10.882;2023-06-22T02:57:07;23.60;99.80
32476;DHT22;18929;48.008;10.882;2023-06-22T02:59:39;23.60;99.70
32476;DHT22;18929;48.008;10.882;2023-06-22T03:02:06;23.70;99.80
32476;DHT22;18929;48.008;10.882;2023-06-22T03:04:33;23.70;99.70
32476;DHT22;18929;48.008;10.882;2023-06-22T03:06:59;23.70;99.70
32476;DHT22;18929;48.008;10.882;2023-06-22T03:09:27;23.80;99.60
32476;DHT22;18929;48.008;10.882;2023-06-22T03:11:54;23.60;99.70
32476;DHT22;18929;48.008;10.882;2023-06-22T03:14:22;23.30;99.80
32476;DHT22;18929;48.008;10.882;2023-06-22T03:16:49;23.30;99.90
32476;DHT22;18929;48.008;10.882;2023-06-22T03:19:16;23.50;99.90
32476;DHT22;18929;48.008;10.882;2023-06-22T03:21:42;23.00;99.90
32476;DHT22;18929;48.008;10.882;2023-06-22T03:24:09;23.40;99.90
32476;DHT22;18929;48.008;10.882;2023-06-22T03:26:36;23.40;99.90
32476;DHT22;18929;48.008;10.882;2023-06-22T03:29:03;23.40;99.90
32476;DHT22;18929;48.008;10.882;2023-06-22T03:31:31;23.40;99.90
32476;DHT22;18929;48.008;10.882;2023-06-22T03:33:58;23.30;99.90
32476;DHT22;18929;48.008;10.882;2023-06-22T03:36:24;23.30;99.90
32476;DHT22;18929;48.008;10.882;2023-06-22T03:38:51;23.50;99.70
32476;DHT22;18929;48.008;10.882;2023-06-22T03:41:18;23.60;99.50
32476;DHT22;18929;48.008;10.882;2023-06-22T03:43:45;23.50;99.80
32476;DHT22;18929;48.008;10.882;2023-06-22T03:46:11;23.40;99.80
32476;DHT22;18929;48.008;10.882;2023-06-22T03:48:40;23.40;99.80
32476;DHT22;18929;48.008;10.882;2023-06-22T03:51:06;23.40;99.90
32476;DHT22;18929;48.008;10.882;2023-06-22T03:53:33;23.20;99.90
32476;DHT22;18929;48.008;10.882;2023-06-22T03:56:00;23.20;99.90
32476;DHT22;18929;48.008;10.882;2023-06-22T03:58:27;23.20;99.90
32476;DHT22;18929;48.008;10.882;2023-06-22T04:00:58;23.20;99.90
32476;DHT22;18929;48.008;10.882;2023-06-22T04:03:25;23.20;99.90
32476;DHT22;18929;48.008;10.882;2023-06-22T04:05:53;23.10;99.90
32476;DHT22;18929;48.008;10.882;2023-06-22T04:08:20;22.40;99.90
32476;DHT22;18929;48.008;10.882;2023-06-22T04:10:47;22.90;99.90
32476;DHT22;18929;48.008;10.882;2023-06-22T04:13:14;23.00;99.90
32476;DHT22;18929;48.008;10.882;2023-06-22T04:18:11;22.40;99.90
32476;DHT22;18929;48.008;10.882;2023-06-22T04:20:38;22.70;99.90
32476;DHT22;18929;48.008;10.882;2023-06-22T04:23:06;22.50;99.90
32476;DHT22;18929;48.008;10.882;2023-06-22T04:25:33;22.90;99.90
32476;DHT22;18929;48.008;10.882;2023-06-22T04:28:00;23.10;99.90
32476;DHT22;18929;48.008;10.882;2023-06-22T04:30:29;23.10;99.90
32476;DHT22;18929;48.008;10.882;2023-06-22T04:32:57;23.20;99.90
32476;DHT22;18929;48.008;10.882;2023-06-22T04:35:23;22.70;99.90
32476;DHT22;18929;48.008;10.882;2023-06-22T04:37:50;23.00;99.90
32476;DHT22;18929;48.008;10.882;2023-06-22T04:40:22;23.00;99.90
32476;DHT22;18929;48.008;10.882;2023-06-22T04:42:49;23.00;99.90
32476;DHT22;18929;48.008;10.882;2023-06-22T04:45:19;23.20;99.90
32476;DHT22;18929;48.008;10.882;2023-06-22T04:47:46;22.80;99.90
32476;DHT22;18929;48.008;10.882;2023-06-22T04:50:13;22.50;99.90
32476;DHT22;18929;48.008;10.882;2023-06-22T04:52:40;23.20;99.90
32476;DHT22;18929;48.008;10.882;2023-06-22T04:55:07;23.40;99.90
32476;DHT22;18929;48.008;10.882;2023-06-22T04:57:35;24.00;99.90
32476;DHT22;18929;48.008;10.882;2023-06-22T05:00:05;24.00;99.90
32476;DHT22;18929;48.008;10.882;2023-06-22T05:02:38;24.30;99.60
32476;DHT22;18929;48.008;10.882;2023-06-22T05:05:07;24.20;99.50
32476;DHT22;18929;48.008;10.882;2023-06-22T05:07:34;23.80;99.90
32476;DHT22;18929;48.008;10.882;2023-06-22T05:10:01;22.80;99.90
32476;DHT22;18929;48.008;10.882;2023-06-22T05:12:28;23.70;99.90
32476;DHT22;18929;48.008;10.882;2023-06-22T05:14:56;24.10;99.90
32476;DHT22;18929;48.008;10.882;2023-06-22T05:17:23;24.00;99.90
32476;DHT22;18929;48.008;10.882;2023-06-22T05:19:50;22.60;99.90
32476;DHT22;18929;48.008;10.882;2023-06-22T05:22:18;23.30;99.90
32476;DHT22;18929;48.008;10.882;2023-06-22T05:24:45;23.90;99.90
32476;DHT22;18929;48.008;10.882;2023-06-22T05:27:12;24.30;99.90
32476;DHT22;18929;48.008;10.882;2023-06-22T05:29:39;24.80;99.90
32476;DHT22;18929;48.008;10.882;2023-06-22T05:32:07;25.30;99.90
32476;DHT22;18929;48.008;10.882;2023-06-22T05:34:35;25.10;99.90
32476;DHT22;18929;48.008;10.882;2023-06-22T05:46:42;25.20;98.80
32476;DHT22;18929;48.008;10.882;2023-06-22T05:49:11;25.00;99.60
32476;DHT22;18929;48.008;10.882;2023-06-22T05:51:38;24.50;99.90
32476;DHT22;18929;48.008;10.882;2023-06-22T05:54:23;23.90;99.90
32476;DHT22;18929;48.008;10.882;2023-06-22T05:56:50;24.70;99.90
32476;DHT22;18929;48.008;10.882;2023-06-22T05:59:17;25.10;99.90
32476;DHT22;18929;48.008;10.882;2023-06-22T06:01:44;25.00;99.90
32476;DHT22;18929;48.008;10.882;2023-06-22T07:32:00;24.00;99.90
32476;DHT22;18929;48.008;10.882;2023-06-22T07:34:30;24.20;99.90
32476;DHT22;18929;48.008;10.882;2023-06-22T07:36:57;24.50;99.90
32476;DHT22;18929;48.008;10.882;2023-06-22T07:39:24;24.70;99.90
32476;DHT22;18929;48.008;10.882;2023-06-22T07:41:52;24.90;99.90
32476;DHT22;18929;48.008;10.882;2023-06-22T07:44:19;24.60;99.90
32476;DHT22;18929;48.008;10.882;2023-06-22T07:47:14;24.90;99.90
32476;DHT22;18929;48.008;10.882;2023-06-22T08:30:17;25.90;99.90
32476;DHT22;18929;48.008;10.882;2023-06-22T08:32:44;26.00;99.90
32476;DHT22;18929;48.008;10.882;2023-06-22T08:35:11;25.60;99.90
32476;DHT22;18929;48.008;10.882;2023-06-22T08:37:38;25.60;99.90
32476;DHT22;18929;48.008;10.882;2023-06-22T08:40:06;25.50;99.90
32476;DHT22;18929;48.008;10.882;2023-06-22T08:42:34;25.50;99.90
32476;DHT22;18929;48.008;10.882;2023-06-22T08:45:01;25.70;99.90
32476;DHT22;18929;48.008;10.882;2023-06-22T08:47:30;25.90;99.90
32476;DHT22;18929;48.008;10.882;2023-06-22T08:49:57;25.50;99.90
32476;DHT22;18929;48.008;10.882;2023-06-22T08:52:24;26.00;99.90
32476;DHT22;18929;48.008;10.882;2023-06-22T08:54:51;26.40;99.90
32476;DHT22;18929;48.008;10.882;2023-06-22T08:57:18;26.20;99.90
32476;DHT22;18929;48.008;10.882;2023-06-22T08:59:45;26.60;99.90
32476;DHT22;18929;48.008;10.882;2023-06-22T09:02:12;26.60;99.90
32476;DHT22;18929;48.008;10.882;2023-06-22T09:04:41;26.50;99.90
32476;DHT22;18929;48.008;10.882;2023-06-22T09:07:08;26.30;99.90
32476;DHT22;18929;48.008;10.882;2023-06-22T09:09:35;26.60;99.90
32476;DHT22;18929;48.008;10.882;2023-06-22T09:12:02;26.60;99.90
32476;DHT22;18929;48.008;10.882;2023-06-22T09:14:29;26.60;99.90
32476;DHT22;18929;48.008;10.882;2023-06-22T09:16:56;27.00;99.90
32476;DHT22;18929;48.008;10.882;2023-06-22T09:19:23;26.60;99.90
32476;DHT22;18929;48.008;10.882;2023-06-22T09:21:51;26.90;99.90
32476;DHT22;18929;48.008;10.882;2023-06-22T09:24:18;26.60;99.90
32476;DHT22;18929;48.008;10.882;2023-06-22T09:26:45;26.80;99.90
32476;DHT22;18929;48.008;10.882;2023-06-22T09:29:12;26.90;99.90
32476;DHT22;18929;48.008;10.882;2023-06-22T09:31:39;27.10;99.90
32476;DHT22;18929;48.008;10.882;2023-06-22T09:34:06;27.40;99.90
32476;DHT22;18929;48.008;10.882;2023-06-22T09:36:33;27.40;99.90
32476;DHT22;18929;48.008;10.882;2023-06-22T09:39:02;27.60;99.90
32476;DHT22;18929;48.008;10.882;2023-06-22T09:41:31;27.00;99.90
32476;DHT22;18929;48.008;10.882;2023-06-22T09:43:58;27.20;99.90
32476;DHT22;18929;48.008;10.882;2023-06-22T09:46:25;27.80;99.90
32476;DHT22;18929;48.008;10.882;2023-06-22T09:48:53;27.80;99.90
32476;DHT22;18929;48.008;10.882;2023-06-22T09:51:20;28.00;99.70
32476;DHT22;18929;48.008;10.882;2023-06-22T09:53:49;28.00;99.70
32476;DHT22;18929;48.008;10.882;2023-06-22T09:56:17;28.20;99.90
32476;DHT22;18929;48.008;10.882;2023-06-22T09:58:44;28.00;99.70
32476;DHT22;18929;48.008;10.882;2023-06-22T10:01:11;28.20;99.10
32476;DHT22;18929;48.008;10.882;2023-06-22T10:03:40;28.00;99.30
32476;DHT22;18929;48.008;10.882;2023-06-22T10:06:07;28.50;98.70
32476;DHT22;18929;48.008;10.882;2023-06-22T10:08:34;28.50;98.60
32476;DHT22;18929;48.008;10.882;2023-06-22T10:11:01;28.10;99.00
32476;DHT22;18929;48.008;10.882;2023-06-22T10:13:29;27.50;99.90
32476;DHT22;18929;48.008;10.882;2023-06-22T10:15:56;28.40;99.20
32476;DHT22;18929;48.008;10.882;2023-06-22T10:18:23;28.10;98.90
32476;DHT22;18929;48.008;10.882;2023-06-22T10:20:50;28.80;99.20
32476;DHT22;18929;48.008;10.882;2023-06-22T10:23:17;29.10;97.70
32476;DHT22;18929;48.008;10.882;2023-06-22T10:25:44;29.30;97.70
32476;DHT22;18929;48.008;10.882;2023-06-22T10:28:11;29.40;97.30
32476;DHT22;18929;48.008;10.882;2023-06-22T10:30:39;29.50;97.10
32476;DHT22;18929;48.008;10.882;2023-06-22T10:33:07;28.40;98.30
32476;DHT22;18929;48.008;10.882;2023-06-22T10:35:34;27.90;98.70
32476;DHT22;18929;48.008;10.882;2023-06-22T10:38:03;28.80;98.60
32476;DHT22;18929;48.008;10.882;2023-06-22T10:40:30;29.40;97.10
32476;DHT22;18929;48.008;10.882;2023-06-22T10:42:56;29.60;96.00
32476;DHT22;18929;48.008;10.882;2023-06-22T10:45:23;29.60;95.90
32476;DHT22;18929;48.008;10.882;2023-06-22T10:47:52;29.50;95.40
32476;DHT22;18929;48.008;10.882;2023-06-22T10:53:41;29.90;95.40
32476;DHT22;18929;48.008;10.882;2023-06-22T10:56:08;30.10;94.90
32476;DHT22;18929;48.008;10.882;2023-06-22T10:58:35;30.20;92.30
32476;DHT22;18929;48.008;10.882;2023-06-22T11:01:02;30.40;94.40
32476;DHT22;18929;48.008;10.882;2023-06-22T11:03:30;30.20;94.40
32476;DHT22;18929;48.008;10.882;2023-06-22T11:05:57;30.60;92.80
32476;DHT22;18929;48.008;10.882;2023-06-22T11:08:24;29.60;94.40
32476;DHT22;18929;48.008;10.882;2023-06-22T11:10:51;30.00;95.40
32476;DHT22;18929;48.008;10.882;2023-06-22T11:13:18;30.10;94.50
32476;DHT22;18929;48.008;10.882;2023-06-22T11:15:44;30.30;92.50
32476;DHT22;18929;48.008;10.882;2023-06-22T11:18:11;30.60;91.50
32476;DHT22;18929;48.008;10.882;2023-06-22T11:20:39;30.90;92.40
32476;DHT22;18929;48.008;10.882;2023-06-22T11:23:07;30.80;92.00
32476;DHT22;18929;48.008;10.882;2023-06-22T11:25:33;30.50;93.80
32476;DHT22;18929;48.008;10.882;2023-06-22T11:28:01;30.50;94.30
32476;DHT22;18929;48.008;10.882;2023-06-22T11:30:28;30.40;93.70
32476;DHT22;18929;48.008;10.882;2023-06-22T11:32:56;30.80;92.00
32476;DHT22;18929;48.008;10.882;2023-06-22T11:35:23;31.10;91.50
32476;DHT22;18929;48.008;10.882;2023-06-22T11:37:51;31.30;91.40
32476;DHT22;18929;48.008;10.882;2023-06-22T11:40:18;31.20;90.90
32476;DHT22;18929;48.008;10.882;2023-06-22T11:42:45;31.20;90.10
32476;DHT22;18929;48.008;10.882;2023-06-22T11:45:12;31.30;90.70
32476;DHT22;18929;48.008;10.882;2023-06-22T11:47:39;31.00;90.30
32476;DHT22;18929;48.008;10.882;2023-06-22T11:50:06;31.20;90.20
32476;DHT22;18929;48.008;10.882;2023-06-22T11:52:33;31.40;90.40
32476;DHT22;18929;48.008;10.882;2023-06-22T11:55:03;31.20;91.10
32476;DHT22;18929;48.008;10.882;2023-06-22T11:57:32;31.40;91.40
32476;DHT22;18929;48.008;10.882;2023-06-22T11:59:59;31.00;93.80
32476;DHT22;18929;48.008;10.882;2023-06-22T12:02:26;30.40;93.80
32476;DHT22;18929;48.008;10.882;2023-06-22T12:04:53;30.70;94.30
32476;DHT22;18929;48.008;10.882;2023-06-22T12:07:21;30.50;94.20
32476;DHT22;18929;48.008;10.882;2023-06-22T12:09:48;30.60;95.40
32476;DHT22;18929;48.008;10.882;2023-06-22T12:12:16;30.90;95.10
32476;DHT22;18929;48.008;10.882;2023-06-22T12:14:43;30.90;94.80
32476;DHT22;18929;48.008;10.882;2023-06-22T12:17:10;30.40;95.40
32476;DHT22;18929;48.008;10.882;2023-06-22T12:19:37;30.10;96.20
32476;DHT22;18929;48.008;10.882;2023-06-22T12:22:04;30.50;95.50
32476;DHT22;18929;48.008;10.882;2023-06-22T12:24:31;30.90;94.70
32476;DHT22;18929;48.008;10.882;2023-06-22T12:26:58;31.00;94.10
32476;DHT22;18929;48.008;10.882;2023-06-22T12:29:26;31.00;94.80
32476;DHT22;18929;48.008;10.882;2023-06-22T12:31:52;30.90;94.50
32476;DHT22;18929;48.008;10.882;2023-06-22T12:34:19;31.10;94.50
32476;DHT22;18929;48.008;10.882;2023-06-22T12:36:46;31.20;94.10
32476;DHT22;18929;48.008;10.882;2023-06-22T12:39:14;31.20;94.40
32476;DHT22;18929;48.008;10.882;2023-06-22T12:41:40;31.50;94.50
32476;DHT22;18929;48.008;10.882;2023-06-22T12:44:07;31.50;93.70
32476;DHT22;18929;48.008;10.882;2023-06-22T12:46:36;31.60;93.50
32476;DHT22;18929;48.008;10.882;2023-06-22T12:49:03;31.70;93.00
32476;DHT22;18929;48.008;10.882;2023-06-22T12:51:30;32.10;93.00
32476;DHT22;18929;48.008;10.882;2023-06-22T12:53:57;32.90;92.50
32476;DHT22;18929;48.008;10.882;2023-06-22T12:56:24;33.50;91.30
32476;DHT22;18929;48.008;10.882;2023-06-22T12:58:51;33.40;91.30
32476;DHT22;18929;48.008;10.882;2023-06-22T13:01:18;32.20;91.60
32476;DHT22;18929;48.008;10.882;2023-06-22T13:03:46;32.30;91.50
32476;DHT22;18929;48.008;10.882;2023-06-22T13:06:13;32.50;92.90
32476;DHT22;18929;48.008;10.882;2023-06-22T13:08:40;33.00;91.70
32476;DHT22;18929;48.008;10.882;2023-06-22T13:11:07;33.50;92.20
32476;DHT22;18929;48.008;10.882;2023-06-22T13:13:33;33.50;91.30
32476;DHT22;18929;48.008;10.882;2023-06-22T13:16:00;33.20;90.40
32476;DHT22;18929;48.008;10.882;2023-06-22T13:18:27;33.20;90.10
32476;DHT22;18929;48.008;10.882;2023-06-22T13:20:55;33.50;87.50
32476;DHT22;18929;48.008;10.882;2023-06-22T13:23:23;33.20;90.50
32476;DHT22;18929;48.008;10.882;2023-06-22T13:25:50;32.90;84.80
32476;DHT22;18929;48.008;10.882;2023-06-22T13:28:17;33.50;91.50
32476;DHT22;18929;48.008;10.882;2023-06-22T13:30:45;33.40;88.60
32476;DHT22;18929;48.008;10.882;2023-06-22T13:33:12;33.50;87.60
32476;DHT22;18929;48.008;10.882;2023-06-22T13:35:39;33.50;91.10
32476;DHT22;18929;48.008;10.882;2023-06-22T13:38:09;34.00;84.20
32476;DHT22;18929;48.008;10.882;2023-06-22T13:40:36;34.10;80.30
32476;DHT22;18929;48.008;10.882;2023-06-22T13:43:03;34.20;90.00
32476;DHT22;18929;48.008;10.882;2023-06-22T13:45:30;34.30;88.80
32476;DHT22;18929;48.008;10.882;2023-06-22T13:47:56;34.50;87.90
32476;DHT22;18929;48.008;10.882;2023-06-22T13:50:23;34.40;88.30
32476;DHT22;18929;48.008;10.882;2023-06-22T13:52:52;34.60;82.30
32476;DHT22;18929;48.008;10.882;2023-06-22T13:55:21;34.20;78.10
32476;DHT22;18929;48.008;10.882;2023-06-22T13:57:48;33.90;77.50
32476;DHT22;18929;48.008;10.882;2023-06-22T14:00:17;33.40;87.80
32476;DHT22;18929;48.008;10.882;2023-06-22T14:02:43;33.80;85.70
32476;DHT22;18929;48.008;10.882;2023-06-22T14:05:10;33.80;85.70
32476;DHT22;18929;48.008;10.882;2023-06-22T14:07:37;34.20;84.90
32476;DHT22;18929;48.008;10.882;2023-06-22T14:10:04;34.20;75.70
32476;DHT22;18929;48.008;10.882;2023-06-22T14:12:32;34.00;76.20
32476;DHT22;18929;48.008;10.882;2023-06-22T14:14:59;33.90;77.50
32476;DHT22;18929;48.008;10.882;2023-06-22T14:17:26;34.40;83.30
32476;DHT22;18929;48.008;10.882;2023-06-22T14:19:53;34.90;76.00
32476;DHT22;18929;48.008;10.882;2023-06-22T14:22:20;35.10;76.70
32476;DHT22;18929;48.008;10.882;2023-06-22T14:24:48;35.20;82.20
32476;DHT22;18929;48.008;10.882;2023-06-22T14:27:15;35.30;81.60
32476;DHT22;18929;48.008;10.882;2023-06-22T14:29:43;35.30;81.00
32476;DHT22;18929;48.008;10.882;2023-06-22T14:32:10;35.50;80.40
32476;DHT22;18929;48.008;10.882;2023-06-22T14:34:36;35.60;79.80
32476;DHT22;18929;48.008;10.882;2023-06-22T14:37:05;35.70;80.00
32476;DHT22;18929;48.008;10.882;2023-06-22T14:39:32;35.60;79.80
32476;DHT22;18929;48.008;10.882;2023-06-22T14:41:59;35.40;80.50
32476;DHT22;18929;48.008;10.882;2023-06-22T14:44:26;35.00;72.10
32476;DHT22;18929;48.008;10.882;2023-06-22T14:46:55;35.20;72.30
32476;DHT22;18929;48.008;10.882;2023-06-22T14:49:22;35.00;75.90
32476;DHT22;18929;48.008;10.882;2023-06-22T14:51:49;35.00;76.50
32476;DHT22;18929;48.008;10.882;2023-06-22T14:54:16;34.90;80.80
32476;DHT22;18929;48.008;10.882;2023-06-22T14:56:43;35.00;78.10
32476;DHT22;18929;48.008;10.882;2023-06-22T14:59:09;35.20;80.10
32476;DHT22;18929;48.008;10.882;2023-06-22T15:01:36;35.50;79.80
32476;DHT22;18929;48.008;10.882;2023-06-22T15:04:04;34.90;74.90
32476;DHT22;18929;48.008;10.882;2023-06-22T15:06:31;34.70;80.80
32476;DHT22;18929;48.008;10.882;2023-06-22T15:08:58;34.90;75.30
32476;DHT22;18929;48.008;10.882;2023-06-22T15:11:25;34.90;81.00
32476;DHT22;18929;48.008;10.882;2023-06-22T15:13:52;35.50;80.20
32476;DHT22;18929;48.008;10.882;2023-06-22T15:16:18;35.10;73.40
32476;DHT22;18929;48.008;10.882;2023-06-22T15:18:45;35.00;78.00
32476;DHT22;18929;48.008;10.882;2023-06-22T15:21:30;35.50;80.20
32476;DHT22;18929;48.008;10.882;2023-06-22T15:23:58;35.20;77.60
32476;DHT22;18929;48.008;10.882;2023-06-22T15:26:24;35.60;76.10
32476;DHT22;18929;48.008;10.882;2023-06-22T15:28:51;34.80;78.10
32476;DHT22;18929;48.008;10.882;2023-06-22T15:31:20;35.20;79.30
32476;DHT22;18929;48.008;10.882;2023-06-22T15:33:47;34.10;77.50
32476;DHT22;18929;48.008;10.882;2023-06-22T15:36:14;33.60;78.10
32476;DHT22;18929;48.008;10.882;2023-06-22T15:38:42;34.10;83.50
32476;DHT22;18929;48.008;10.882;2023-06-22T15:41:09;34.20;82.90
32476;DHT22;18929;48.008;10.882;2023-06-22T15:43:35;34.10;77.80
32476;DHT22;18929;48.008;10.882;2023-06-22T15:46:02;34.40;82.70
32476;DHT22;18929;48.008;10.882;2023-06-22T15:48:29;34.70;81.70
32476;DHT22;18929;48.008;10.882;2023-06-22T15:50:56;34.40;78.40
32476;DHT22;18929;48.008;10.882;2023-06-22T15:53:22;34.40;79.20
32476;DHT22;18929;48.008;10.882;2023-06-22T15:55:51;34.40;80.50
32476;DHT22;18929;48.008;10.882;2023-06-22T15:58:18;33.60;78.60
32476;DHT22;18929;48.008;10.882;2023-06-22T16:00:45;33.90;83.60
32476;DHT22;18929;48.008;10.882;2023-06-22T16:03:14;34.70;82.20
32476;DHT22;18929;48.008;10.882;2023-06-22T16:05:41;34.30;78.00
32476;DHT22;18929;48.008;10.882;2023-06-22T16:08:09;34.10;78.70
32476;DHT22;18929;48.008;10.882;2023-06-22T16:10:36;33.50;83.30
32476;DHT22;18929;48.008;10.882;2023-06-22T16:13:04;34.40;83.00
32476;DHT22;18929;48.008;10.882;2023-06-22T16:15:31;34.80;81.70
32476;DHT22;18929;48.008;10.882;2023-06-22T16:17:58;34.40;81.30
32476;DHT22;18929;48.008;10.882;2023-06-22T16:20:25;34.80;81.40
32476;DHT22;18929;48.008;10.882;2023-06-22T16:22:52;34.50;78.50
32476;DHT22;18929;48.008;10.882;2023-06-22T16:25:18;34.30;80.00
32476;DHT22;18929;48.008;10.882;2023-06-22T16:27:45;34.40;82.30
32476;DHT22;18929;48.008;10.882;2023-06-22T16:30:13;34.70;82.40
32476;DHT22;18929;48.008;10.882;2023-06-22T16:32:49;34.10;79.90
32476;DHT22;18929;48.008;10.882;2023-06-22T16:35:15;33.60;84.00
32476;DHT22;18929;48.008;10.882;2023-06-22T16:37:42;33.60;82.70
32476;DHT22;18929;48.008;10.882;2023-06-22T16:40:09;33.20;85.50
32476;DHT22;18929;48.008;10.882;2023-06-22T16:42:37;32.60;90.50
32476;DHT22;18929;48.008;10.882;2023-06-22T16:45:04;33.20;90.30
32476;DHT22;18929;48.008;10.882;2023-06-22T16:47:32;33.60;91.20
32476;DHT22;18929;48.008;10.882;2023-06-22T16:50:00;33.60;90.10
32476;DHT22;18929;48.008;10.882;2023-06-22T16:52:27;32.00;93.00
32476;DHT22;18929;48.008;10.882;2023-06-22T16:54:54;32.50;92.60
32476;DHT22;18929;48.008;10.882;2023-06-22T16:57:22;30.90;95.10
32476;DHT22;18929;48.008;10.882;2023-06-22T16:59:51;29.30;99.70
32476;DHT22;18929;48.008;10.882;2023-06-22T17:02:19;31.10;99.50
32476;DHT22;18929;48.008;10.882;2023-06-22T17:04:48;30.10;99.70
32476;DHT22;18929;48.008;10.882;2023-06-22T17:07:17;32.20;97.20
32476;DHT22;18929;48.008;10.882;2023-06-22T17:09:46;33.60;95.50
32476;DHT22;18929;48.008;10.882;2023-06-22T17:12:13;34.10;94.60
32476;DHT22;18929;48.008;10.882;2023-06-22T17:14:40;34.50;94.30
32476;DHT22;18929;48.008;10.882;2023-06-22T17:17:09;34.50;94.20
32476;DHT22;18929;48.008;10.882;2023-06-22T17:19:36;34.30;94.20
32476;DHT22;18929;48.008;10.882;2023-06-22T17:22:07;34.40;94.20
32476;DHT22;18929;48.008;10.882;2023-06-22T17:24:33;34.70;94.00
32476;DHT22;18929;48.008;10.882;2023-06-22T17:27:01;34.80;94.10
32476;DHT22;18929;48.008;10.882;2023-06-22T17:29:28;34.80;93.90
32476;DHT22;18929;48.008;10.882;2023-06-22T17:31:57;34.90;94.00
32476;DHT22;18929;48.008;10.882;2023-06-22T17:34:26;32.80;95.60
32476;DHT22;18929;48.008;10.882;2023-06-22T17:36:53;33.00;96.60
32476;DHT22;18929;48.008;10.882;2023-06-22T17:39:28;31.70;96.50
32476;DHT22;18929;48.008;10.882;2023-06-22T17:41:55;32.90;96.90